Time;durP1;ratioP1;P1;durP2;ratioP2;P2;SDS_P1;SDS_P2;PMS_P1;PMS_P2;Temp;Humidity;BMP_temperature;BMP_pressure;BME280_temperature;BME280_humidity;BME280_pressure;Samples;Min_cycle;Max_cycle;Signal;HPM_P1;HPM_P2
2021/11/28 04:03:08;;;;;;;21.67;9.70;;;2.30;88.00;;;;;;5091249;28;20110;-38
2021/11/28 04:05:34;;;;;;;20.20;9.20;;;2.50;88.40;;;;;;5090962;28;20063;-39
2021/11/28 04:07:59;;;;;;;52.15;10.30;;;2.70;88.20;;;;;;5090605;28;20024;-39
2021/11/28 04:10:25;;;;;;;11.75;8.68;;;2.70;87.50;;;;;;5090489;28;20522;-39
2021/11/28 04:12:51;;;;;;;18.42;9.63;;;2.80;87.40;;;;;;5088979;28;20089;-39
2021/11/28 04:15:17;;;;;;;17.40;9.25;;;2.80;87.60;;;;;;5090500;28;20439;-39
2021/11/28 04:17:42;;;;;;;17.10;8.43;;;2.90;87.60;;;;;;5090080;28;20107;-39
2021/11/28 04:20:09;;;;;;;16.77;9.15;;;3.00;87.50;;;;;;5090204;28;20057;-40
2021/11/28 04:22:35;;;;;;;17.10;10.10;;;3.30;86.10;;;;;;5090369;28;20431;-38
2021/11/28 04:25:02;;;;;;;14.05;7.68;;;3.30;85.50;;;;;;5090219;28;20020;-37
2021/11/28 04:27:28;;;;;;;18.20;8.65;;;3.30;85.30;;;;;;5090541;28;20024;-38
2021/11/28 04:29:53;;;;;;;14.70;8.27;;;3.20;85.10;;;;;;5090108;28;20024;-38
2021/11/28 04:32:19;;;;;;;13.82;7.80;;;3.10;85.40;;;;;;5089901;28;20384;-37
2021/11/28 04:34:45;;;;;;;15.27;7.18;;;3.10;85.70;;;;;;5089869;28;20468;-38
2021/11/28 04:37:11;;;;;;;13.05;6.80;;;3.20;86.10;;;;;;5089774;28;20380;-38
2021/11/28 04:39:37;;;;;;;18.58;6.80;;;3.20;85.50;;;;;;5090905;28;20050;-37
2021/11/28 04:42:03;;;;;;;14.32;6.45;;;3.20;85.80;;;;;;5089637;28;20060;-38
2021/11/28 04:44:29;;;;;;;12.90;7.72;;;3.20;85.70;;;;;;5089714;28;20059;-38
2021/11/28 04:46:55;;;;;;;12.80;7.18;;;3.20;85.70;;;;;;5089355;28;20377;-38
2021/11/28 04:49:21;;;;;;;11.73;7.13;;;3.10;85.60;;;;;;5089821;28;20050;-39
2021/11/28 04:51:47;;;;;;;11.25;6.38;;;2.90;86.30;;;;;;5089640;28;20028;-39
2021/11/28 04:54:13;;;;;;;22.25;9.35;;;2.80;86.60;;;;;;5089766;28;20488;-39
2021/11/28 04:56:39;;;;;;;11.93;7.22;;;3.10;86.80;;;;;;5089417;28;20036;-38
2021/11/28 04:59:05;;;;;;;14.95;7.32;;;3.20;86.10;;;;;;5089496;28;20035;-39
2021/11/28 05:01:31;;;;;;;15.45;7.43;;;3.40;85.20;;;;;;5087873;28;20507;-39
2021/11/28 05:03:56;;;;;;;14.60;7.72;;;3.30;85.00;;;;;;5088050;28;20028;-39
2021/11/28 05:06:22;;;;;;;11.25;6.97;;;3.30;84.80;;;;;;5089542;28;20032;-39
2021/11/28 05:08:47;;;;;;;16.25;8.07;;;3.30;84.70;;;;;;5089735;28;20031;-39
2021/11/28 05:11:13;;;;;;;15.48;6.72;;;3.30;85.50;;;;;;5089426;28;20420;-39
2021/11/28 05:13:39;;;;;;;9.90;5.70;;;3.30;85.20;;;;;;5080315;28;20032;-39
2021/11/28 05:16:05;;;;;;;13.52;6.60;;;3.20;85.50;;;;;;5075631;28;20404;-39
2021/11/28 05:18:30;;;;;;;15.02;7.82;;;3.10;86.10;;;;;;5075501;28;20031;-38
2021/11/28 05:20:56;;;;;;;15.63;5.45;;;3.20;86.30;;;;;;5075818;28;20029;-39
2021/11/28 05:23:22;;;;;;;8.30;5.53;;;3.10;86.30;;;;;;5074210;28;20562;-39
2021/11/28 05:25:47;;;;;;;10.25;6.72;;;3.00;86.20;;;;;;5075715;28;20040;-39
2021/11/28 05:28:13;;;;;;;11.18;7.13;;;3.40;86.00;;;;;;5075590;28;20028;-39
2021/11/28 05:30:39;;;;;;;8.25;6.00;;;3.50;85.30;;;;;;5075556;28;20025;-39
2021/11/28 05:33:05;;;;;;;20.52;7.72;;;3.50;84.30;;;;;;5076792;28;20024;-39
2021/11/28 05:35:31;;;;;;;17.17;6.95;;;3.40;84.70;;;;;;5075458;28;20016;-39
2021/11/28 05:37:57;;;;;;;12.15;6.72;;;3.30;84.70;;;;;;5075084;28;20040;-39
2021/11/28 05:40:23;;;;;;;12.88;7.47;;;3.30;85.60;;;;;;5075383;28;20012;-38
2021/11/28 05:42:51;;;;;;;11.90;7.38;;;3.60;85.20;;;;;;5075046;28;20163;-38
2021/11/28 05:45:19;;;;;;;10.68;6.13;;;3.50;83.80;;;;;;5075260;28;20039;-37
2021/11/28 05:47:45;;;;;;;12.95;6.85;;;3.30;84.60;;;;;;5074910;28;20100;-37
2021/11/28 05:50:10;;;;;;;12.38;6.10;;;3.20;85.40;;;;;;5074923;28;20103;-37
2021/11/28 05:52:37;;;;;;;10.10;4.88;;;3.30;85.30;;;;;;5075130;28;20032;-38
2021/11/28 05:55:04;;;;;;;10.55;6.65;;;3.20;85.20;;;;;;5075129;28;20034;-38
2021/11/28 05:57:29;;;;;;;12.65;6.35;;;3.10;85.60;;;;;;5074798;28;20060;-38
2021/11/28 05:59:55;;;;;;;12.32;6.80;;;3.30;85.20;;;;;;5074716;28;20103;-38
2021/11/28 06:02:21;;;;;;;8.07;5.20;;;3.30;84.90;;;;;;5074419;28;20546;-38
2021/11/28 06:04:46;;;;;;;12.85;6.45;;;3.30;84.50;;;;;;5075027;28;20059;-38
2021/11/28 06:07:12;;;;;;;12.73;7.45;;;3.30;84.90;;;;;;5074894;28;20031;-38
2021/11/28 06:09:38;;;;;;;10.13;6.45;;;3.30;85.00;;;;;;5074873;28;20484;-38
2021/11/28 06:12:04;;;;;;;13.88;6.75;;;3.30;85.30;;;;;;5074510;28;20016;-38
2021/11/28 06:14:30;;;;;;;9.77;6.53;;;3.10;85.90;;;;;;5074452;28;20029;-37
2021/11/28 06:16:55;;;;;;;18.52;8.40;;;3.20;86.40;;;;;;5074389;28;20070;-38
2021/11/28 06:19:21;;;;;;;17.40;7.75;;;3.30;86.50;;;;;;5073028;28;20115;-38
2021/11/28 06:21:47;;;;;;;15.05;7.68;;;3.50;85.20;;;;;;5074237;28;20043;-38
2021/11/28 06:24:13;;;;;;;14.50;7.63;;;3.40;85.10;;;;;;5074218;28;20044;-37
2021/11/28 06:26:39;;;;;;;11.45;7.38;;;3.30;85.40;;;;;;5074095;28;20016;-37
2021/11/28 06:29:04;;;;;;;13.57;6.30;;;3.30;85.70;;;;;;5072890;28;20024;-37
2021/11/28 06:31:30;;;;;;;10.70;6.57;;;3.30;85.20;;;;;;5074357;28;20051;-37
2021/11/28 06:33:56;;;;;;;11.40;6.32;;;3.30;85.10;;;;;;5074117;28;20469;-37
2021/11/28 06:36:21;;;;;;;13.70;6.47;;;3.30;85.20;;;;;;5073993;28;20025;-37
2021/11/28 06:38:47;;;;;;;12.55;6.40;;;3.30;84.60;;;;;;5073995;28;20102;-37
2021/11/28 06:41:14;;;;;;;10.88;6.72;;;3.30;85.10;;;;;;5074639;28;20036;-37
2021/11/28 06:43:39;;;;;;;12.20;6.53;;;3.10;85.20;;;;;;5073904;28;20096;-37
2021/11/28 06:46:05;;;;;;;19.77;7.65;;;3.10;86.00;;;;;;5074116;28;20024;-37
2021/11/28 06:48:31;;;;;;;13.70;7.72;;;3.00;86.40;;;;;;5073815;28;20107;-37
2021/11/28 06:50:56;;;;;;;16.27;7.93;;;3.30;86.10;;;;;;5073691;28;20051;-38
2021/11/28 06:53:22;;;;;;;12.65;7.05;;;3.40;85.40;;;;;;5073581;28;20380;-38
2021/11/28 06:55:48;;;;;;;14.07;8.10;;;3.20;85.40;;;;;;5073542;28;20388;-38
2021/11/28 06:58:15;;;;;;;14.02;7.57;;;3.00;86.20;;;;;;5073599;28;20017;-38
2021/11/28 07:00:41;;;;;;;18.55;9.48;;;2.90;86.80;;;;;;5073560;28;20424;-40
2021/11/28 07:03:07;;;;;;;11.07;6.82;;;2.80;87.40;;;;;;5073646;28;20060;-38
2021/11/28 07:05:32;;;;;;;12.45;7.53;;;2.80;87.50;;;;;;5073344;28;20036;-38
2021/11/28 07:07:58;;;;;;;24.70;9.20;;;2.90;87.40;;;;;;5073397;28;20021;-38
2021/11/28 07:10:24;;;;;;;17.42;7.22;;;2.90;87.00;;;;;;5073425;28;20021;-40
2021/11/28 07:12:50;;;;;;;13.68;8.20;;;2.90;87.30;;;;;;5073391;28;20025;-38
2021/11/28 07:15:15;;;;;;;7.90;6.65;;;2.80;86.80;;;;;;5073334;28;20021;-38
2021/11/28 07:17:41;;;;;;;10.55;7.15;;;2.80;87.10;;;;;;5073165;28;20445;-39
2021/11/28 07:20:08;;;;;;;8.70;6.45;;;2.80;87.30;;;;;;5073576;28;20031;-38
2021/11/28 07:22:33;;;;;;;14.98;6.72;;;2.80;87.10;;;;;;5073156;28;20050;-39
2021/11/28 07:25:00;;;;;;;12.32;7.05;;;2.80;87.40;;;;;;5073140;28;20036;-38
2021/11/28 07:27:26;;;;;;;16.42;7.13;;;2.90;87.10;;;;;;5073315;28;20376;-38
2021/11/28 07:29:52;;;;;;;19.60;7.72;;;2.80;87.10;;;;;;5073320;28;20074;-49
2021/11/28 07:32:17;;;;;;;12.85;7.30;;;3.10;86.60;;;;;;5073306;28;20426;-48
2021/11/28 07:34:43;;;;;;;15.60;7.88;;;3.00;86.10;;;;;;5073287;28;20042;-50
2021/11/28 07:37:09;;;;;;;10.55;7.03;;;3.00;86.20;;;;;;5073098;28;20029;-50
2021/11/28 07:39:35;;;;;;;12.90;7.63;;;3.10;86.30;;;;;;5073282;28;20028;-48
2021/11/28 07:42:00;;;;;;;17.58;8.43;;;3.00;86.40;;;;;;5073083;28;20111;-51
2021/11/28 07:44:26;;;;;;;17.08;8.38;;;3.20;86.50;;;;;;5072863;28;20032;-48
2021/11/28 07:46:53;;;;;;;16.00;7.75;;;3.30;85.80;;;;;;5073224;28;20381;-51
2021/11/28 07:49:19;;;;;;;11.98;7.50;;;3.30;85.20;;;;;;5071716;28;20416;-50
2021/11/28 07:51:45;;;;;;;13.52;7.75;;;3.30;84.90;;;;;;5073364;28;20025;-52
2021/11/28 07:54:11;;;;;;;11.43;6.47;;;3.30;85.50;;;;;;5073238;28;20029;-50
2021/11/28 07:56:38;;;;;;;12.95;8.20;;;3.30;85.00;;;;;;5072865;28;20411;-48
2021/11/28 07:59:03;;;;;;;10.35;6.70;;;3.30;85.00;;;;;;5073142;28;20029;-49
2021/11/28 14:03:06;;;;;;;24.35;13.52;;;4.40;82.50;;;;;;5070790;28;20601;-39
2021/11/28 14:05:31;;;;;;;27.25;14.32;;;4.40;82.30;;;;;;5070171;28;20074;-39
2021/11/28 14:08:01;;;;;;;25.73;12.93;;;4.60;82.20;;;;;;5070066;28;20025;-38
2021/11/28 14:10:29;;;;;;;20.17;13.00;;;4.70;81.70;;;;;;5070446;28;20029;-38
2021/11/28 14:12:57;;;;;;;22.98;13.13;;;4.80;82.20;;;;;;5069932;28;20063;-38
2021/11/28 14:15:34;;;;;;;22.90;11.45;;;5.00;80.80;;;;;;5069933;28;20388;-39
2021/11/28 14:18:04;;;;;;;21.15;11.50;;;4.90;80.40;;;;;;5051720;28;20419;-38
2021/11/28 14:20:32;;;;;;;23.35;12.18;;;4.80;80.70;;;;;;5069758;28;20060;-39
2021/11/28 14:22:59;;;;;;;25.90;14.02;;;4.70;80.80;;;;;;5069633;28;20416;-38
2021/11/28 14:25:45;;;;;;;26.15;13.25;;;4.70;81.60;;;;;;5068314;28;20017;-38
2021/11/28 14:28:23;;;;;;;23.92;14.23;;;4.60;81.60;;;;;;5068495;28;20428;-38
2021/11/28 14:30:54;;;;;;;22.02;12.65;;;4.70;81.70;;;;;;5069786;28;20055;-39
2021/11/28 14:33:27;;;;;;;26.48;14.60;;;4.50;82.50;;;;;;5069499;28;20020;-38
2021/11/28 14:36:04;;;;;;;19.73;12.52;;;4.70;82.20;;;;;;5070046;28;20029;-38
2021/11/28 14:38:31;;;;;;;25.45;13.70;;;4.70;81.90;;;;;;5069902;28;20537;-39
2021/11/28 14:41:07;;;;;;;26.38;14.63;;;4.60;82.70;;;;;;5069271;28;20028;-39
2021/11/28 14:43:51;;;;;;;29.20;16.00;;;4.80;82.40;;;;;;5069556;28;20066;-39
2021/11/28 14:46:20;;;;;;;28.15;15.95;;;4.80;82.00;;;;;;5070127;28;20024;-39
2021/11/28 14:49:02;;;;;;;23.17;14.35;;;4.70;82.70;;;;;;5069778;28;20032;-39
2021/11/28 14:51:36;;;;;;;27.95;13.43;;;4.80;83.00;;;;;;5069584;28;20464;-39
2021/11/28 14:54:29;;;;;;;29.15;15.05;;;4.60;83.00;;;;;;5069604;28;20051;-40
2021/11/28 14:57:21;;;;;;;24.77;14.45;;;4.60;83.40;;;;;;5066094;28;20041;-39
2021/11/28 14:59:52;;;;;;;28.75;13.90;;;4.60;83.20;;;;;;5067769;28;20059;-39
2021/11/28 15:02:18;;;;;;;23.40;13.20;;;4.60;83.30;;;;;;5082820;28;20500;-39
2021/11/28 15:04:46;;;;;;;28.17;15.68;;;4.80;82.90;;;;;;5089276;28;20032;-38
2021/11/28 15:07:25;;;;;;;26.40;14.05;;;4.80;82.50;;;;;;5089430;28;20464;-38
2021/11/28 15:10:03;;;;;;;26.38;15.50;;;4.80;82.40;;;;;;5089420;28;20024;-39
2021/11/28 15:12:33;;;;;;;26.85;14.73;;;5.00;82.30;;;;;;5086909;28;20024;-39
2021/11/28 15:15:20;;;;;;;23.03;13.77;;;4.90;82.20;;;;;;5075419;28;20032;-38
2021/11/28 15:17:47;;;;;;;22.13;11.98;;;4.70;83.10;;;;;;5075503;28;20373;-38
2021/11/28 15:20:17;;;;;;;27.23;14.60;;;4.60;83.20;;;;;;5075346;28;20029;-38
2021/11/28 15:23:04;;;;;;;34.20;17.90;;;4.60;83.70;;;;;;5075504;28;20028;-37
2021/11/28 15:25:31;;;;;;;26.40;15.65;;;4.90;83.40;;;;;;5075335;28;20179;-38
2021/11/28 15:27:59;;;;;;;28.23;15.80;;;4.80;83.50;;;;;;5075273;28;20025;-39
2021/11/28 15:30:26;;;;;;;31.80;16.83;;;4.90;82.90;;;;;;5075148;28;20078;-39
2021/11/28 15:32:53;;;;;;;25.65;13.30;;;4.80;83.20;;;;;;5074889;28;20028;-37
2021/11/28 15:35:21;;;;;;;27.45;14.73;;;4.70;83.70;;;;;;5074959;28;20020;-39
2021/11/28 15:37:49;;;;;;;29.08;15.85;;;4.60;84.20;;;;;;5075312;28;20119;-42
2021/11/28 15:40:20;;;;;;;28.75;14.25;;;4.80;84.00;;;;;;5057807;28;20114;-38
2021/11/28 15:42:48;;;;;;;25.17;13.93;;;4.50;84.20;;;;;;5041332;28;20120;-38
2021/11/28 15:45:15;;;;;;;27.90;16.10;;;4.70;84.50;;;;;;5075152;28;20036;-37
2021/11/28 15:47:40;;;;;;;30.08;16.15;;;4.70;85.30;;;;;;5075581;28;20021;-38
2021/11/28 15:50:07;;;;;;;28.02;16.15;;;4.70;85.20;;;;;;5076460;28;20104;-39
2021/11/28 15:52:33;;;;;;;25.48;13.77;;;4.60;85.90;;;;;;5057734;28;20116;-38
2021/11/28 15:55:00;;;;;;;32.45;16.92;;;4.60;85.80;;;;;;5075108;28;20029;-38
2021/11/28 15:57:25;;;;;;;32.38;16.92;;;4.50;86.50;;;;;;5057207;28;20025;-38
2021/11/28 15:59:51;;;;;;;34.35;15.65;;;4.50;87.10;;;;;;5077262;28;20388;-38
2021/11/28 16:02:17;;;;;;;33.75;16.75;;;4.50;87.10;;;;;;5074675;28;20048;-38
2021/11/28 16:04:42;;;;;;;30.33;17.00;;;4.60;86.80;;;;;;5075334;28;20092;-39
2021/11/28 16:07:08;;;;;;;34.42;17.25;;;4.70;87.30;;;;;;5074748;28;20020;-37
2021/11/28 16:09:34;;;;;;;31.23;14.77;;;4.80;86.80;;;;;;5075451;28;20025;-39
2021/11/28 16:12:00;;;;;;;39.03;18.33;;;4.80;86.70;;;;;;5074742;28;20088;-39
2021/11/28 16:14:29;;;;;;;37.55;18.05;;;4.80;87.00;;;;;;5074393;28;20024;-39
2021/11/28 16:16:56;;;;;;;36.10;19.08;;;4.80;87.40;;;;;;5074561;28;20187;-38
2021/11/28 16:19:22;;;;;;;32.33;18.38;;;4.80;87.50;;;;;;5074474;28;20035;-39
2021/11/28 16:21:48;;;;;;;38.55;18.13;;;4.60;87.90;;;;;;5056043;28;20024;-38
2021/11/28 16:24:13;;;;;;;30.10;14.80;;;4.50;88.20;;;;;;5074327;28;20060;-39
2021/11/28 16:26:39;;;;;;;37.30;17.98;;;4.40;88.80;;;;;;5074128;28;20021;-38
2021/11/28 16:29:05;;;;;;;29.25;15.30;;;4.40;88.90;;;;;;5074357;28;20112;-39
2021/11/28 16:31:31;;;;;;;32.63;17.63;;;4.40;89.40;;;;;;5074108;28;20064;-38
2021/11/28 16:33:59;;;;;;;38.13;18.77;;;4.30;89.50;;;;;;5074474;28;20039;-39
2021/11/28 16:36:25;;;;;;;35.30;17.20;;;4.30;89.80;;;;;;5074440;28;20088;-38
2021/11/28 16:38:52;;;;;;;33.38;17.80;;;4.20;90.50;;;;;;5056228;28;20024;-39
2021/11/28 16:41:17;;;;;;;36.25;16.98;;;4.20;90.50;;;;;;5074503;28;20029;-38
2021/11/28 16:43:43;;;;;;;32.40;17.00;;;4.00;90.90;;;;;;5074291;28;20518;-38
2021/11/28 16:46:09;;;;;;;32.10;18.88;;;4.10;91.50;;;;;;5074219;28;20028;-38
2021/11/28 16:48:35;;;;;;;37.70;18.33;;;4.10;91.30;;;;;;5074140;28;20016;-38
2021/11/28 16:51:03;;;;;;;35.20;17.55;;;4.20;91.60;;;;;;5073675;28;20037;-37
2021/11/28 16:53:30;;;;;;;37.83;19.20;;;4.30;91.50;;;;;;5073721;28;20020;-38
2021/11/28 16:55:56;;;;;;;36.13;17.67;;;4.20;91.30;;;;;;5073568;28;20050;-38
2021/11/28 16:58:22;;;;;;;33.83;18.40;;;4.40;91.10;;;;;;5073523;28;20048;-38
2021/11/28 17:00:47;;;;;;;38.38;20.27;;;4.30;90.70;;;;;;5073097;28;20031;-38
2021/11/28 17:03:13;;;;;;;37.67;18.40;;;4.30;90.70;;;;;;5055252;28;20388;-38
2021/11/28 17:05:41;;;;;;;32.67;16.77;;;4.40;90.90;;;;;;5073484;28;20024;-38
2021/11/28 17:08:08;;;;;;;29.80;16.00;;;4.40;90.50;;;;;;5073183;28;20035;-38
2021/11/28 17:10:38;;;;;;;37.83;17.65;;;4.40;90.20;;;;;;5073475;28;20037;-38
2021/11/28 17:13:06;;;;;;;34.75;16.70;;;4.50;90.60;;;;;;5073411;28;20456;-38
2021/11/28 17:15:32;;;;;;;35.90;17.70;;;4.50;90.30;;;;;;5073495;28;20432;-38
2021/11/28 17:17:58;;;;;;;32.90;16.90;;;4.40;89.90;;;;;;5073215;28;20032;-38
2021/11/28 17:20:25;;;;;;;39.55;18.55;;;4.50;90.50;;;;;;5073123;28;20032;-38
2021/11/28 17:22:50;;;;;;;38.67;19.35;;;4.50;90.20;;;;;;5072985;28;20132;-39
2021/11/28 17:25:16;;;;;;;37.35;19.02;;;4.60;90.00;;;;;;5072535;28;20020;-38
2021/11/28 17:27:43;;;;;;;38.30;18.30;;;4.60;90.00;;;;;;5073269;28;20434;-39
2021/11/28 17:30:11;;;;;;;36.00;17.15;;;4.40;90.00;;;;;;5072926;28;20113;-37
2021/11/28 17:32:37;;;;;;;33.35;15.18;;;4.40;89.90;;;;;;5072697;28;20029;-38
2021/11/28 17:35:04;;;;;;;31.98;15.05;;;4.40;89.90;;;;;;5073298;28;20142;-38
2021/11/28 17:37:33;;;;;;;27.60;13.52;;;4.40;89.90;;;;;;5072780;28;20026;-38
2021/11/28 17:40:03;;;;;;;23.10;12.13;;;4.40;89.70;;;;;;5072692;28;20051;-38
2021/11/28 17:42:29;;;;;;;21.17;10.82;;;4.40;89.60;;;;;;5054949;28;20055;-38
2021/11/28 17:44:54;;;;;;;27.60;11.82;;;4.40;89.20;;;;;;5072981;28;20061;-41
2021/11/28 17:47:20;;;;;;;17.98;10.90;;;4.40;89.40;;;;;;5054886;28;20025;-38
2021/11/28 17:49:46;;;;;;;18.13;10.15;;;4.40;89.00;;;;;;5073201;28;20115;-38
2021/11/28 17:52:12;;;;;;;21.27;9.60;;;4.60;89.30;;;;;;5072959;28;20211;-38
2021/11/28 17:54:38;;;;;;;23.98;11.50;;;4.40;89.20;;;;;;5072889;28;20021;-38
2021/11/28 17:57:04;;;;;;;16.85;10.30;;;4.40;89.30;;;;;;5072634;28;20078;-39
2021/11/28 17:59:30;;;;;;;14.90;9.27;;;4.40;89.30;;;;;;5073097;28;20032;-39
2021/11/28 18:01:55;;;;;;;15.70;10.02;;;4.30;89.60;;;;;;5072352;28;20053;-38
2021/11/28 18:04:21;;;;;;;17.30;10.20;;;4.30;89.90;;;;;;5072353;28;20039;-39
2021/11/28 18:06:47;;;;;;;18.15;10.00;;;4.30;89.60;;;;;;5072777;28;20032;-39
2021/11/28 18:09:13;;;;;;;32.33;15.95;;;4.30;89.60;;;;;;5072836;28;20100;-38
2021/11/28 18:11:40;;;;;;;30.55;13.52;;;4.40;89.80;;;;;;5072576;28;20082;-38
2021/11/28 18:14:05;;;;;;;20.85;10.02;;;4.30;89.50;;;;;;5072484;28;20103;-38
2021/11/28 18:16:31;;;;;;;12.88;7.93;;;4.20;89.90;;;;;;5073068;28;20464;-39
2021/11/28 18:18:57;;;;;;;18.33;8.07;;;4.30;89.80;;;;;;5072515;28;20032;-38
2021/11/28 18:21:23;;;;;;;12.75;6.95;;;4.10;89.80;;;;;;5072518;28;20491;-38
2021/11/28 18:23:50;;;;;;;16.08;8.05;;;3.90;90.20;;;;;;5072465;28;20464;-38
2021/11/28 18:26:20;;;;;;;9.88;6.80;;;3.80;90.80;;;;;;5072816;28;20020;-38
2021/11/28 18:28:47;;;;;;;12.82;6.43;;;3.80;91.10;;;;;;5073116;28;20384;-39
2021/11/28 18:31:14;;;;;;;12.40;6.03;;;3.80;91.00;;;;;;5072108;28;20468;-38
2021/11/28 18:33:39;;;;;;;8.52;6.38;;;3.80;91.40;;;;;;5072586;28;20021;-39
2021/11/28 18:36:05;;;;;;;13.38;7.03;;;3.60;91.30;;;;;;5072616;28;20082;-39
2021/11/28 18:38:31;;;;;;;9.32;6.15;;;3.50;91.50;;;;;;5054995;28;20020;-38
2021/11/28 18:40:57;;;;;;;11.57;6.28;;;3.50;91.80;;;;;;5072400;28;20468;-38
2021/11/28 18:43:22;;;;;;;13.10;8.07;;;3.40;92.00;;;;;;5072533;28;20020;-38
2021/11/28 18:45:48;;;;;;;7.93;6.07;;;3.60;92.30;;;;;;5072534;28;20020;-38
2021/11/28 18:48:14;;;;;;;10.88;6.38;;;3.70;92.10;;;;;;5073857;28;20025;-38
2021/11/28 18:50:39;;;;;;;5.97;4.50;;;3.80;91.60;;;;;;5076390;28;20103;-38
2021/11/28 18:53:05;;;;;;;8.70;5.15;;;3.80;91.30;;;;;;5076104;28;20029;-38
2021/11/28 18:55:31;;;;;;;5.30;4.47;;;3.80;90.90;;;;;;5076251;28;20027;-38
2021/11/28 18:57:59;;;;;;;8.85;4.70;;;3.80;90.80;;;;;;5057955;28;20043;-38
2021/11/28 19:00:31;;;;;;;6.55;4.40;;;3.80;90.80;;;;;;5075628;28;20032;-37
2021/11/28 19:02:57;;;;;;;7.93;3.97;;;3.80;90.30;;;;;;5076047;28;20061;-38
2021/11/28 19:05:23;;;;;;;5.53;3.63;;;3.80;90.20;;;;;;5075715;28;20020;-37
2021/11/28 19:07:49;;;;;;;10.43;3.55;;;3.70;90.20;;;;;;5075659;28;20090;-38
2021/11/28 19:10:22;;;;;;;5.28;3.53;;;3.70;90.30;;;;;;5075572;28;20108;-38
2021/11/28 19:12:50;;;;;;;5.38;3.20;;;3.80;90.40;;;;;;5075689;28;20017;-38
2021/11/28 19:15:15;;;;;;;4.55;3.90;;;3.80;90.00;;;;;;5075824;28;20367;-37
2021/11/28 19:17:41;;;;;;;6.32;4.38;;;3.80;90.00;;;;;;5075252;28;20031;-37
2021/11/28 19:20:08;;;;;;;6.05;4.05;;;3.70;90.20;;;;;;5075598;28;20510;-37
2021/11/28 19:22:35;;;;;;;6.00;3.15;;;3.60;90.40;;;;;;5075426;28;20025;-39
2021/11/28 19:25:00;;;;;;;12.80;5.85;;;3.50;90.60;;;;;;5075505;28;20024;-39
2021/11/28 19:27:26;;;;;;;4.50;3.17;;;3.50;90.70;;;;;;5075406;28;20029;-39
2021/11/28 19:29:52;;;;;;;4.88;3.38;;;3.50;90.60;;;;;;5075248;28;20088;-38
2021/11/28 19:32:17;;;;;;;4.50;2.97;;;3.40;90.70;;;;;;5075235;28;20407;-37
2021/11/28 19:34:43;;;;;;;7.65;3.65;;;3.40;90.80;;;;;;5075457;28;20427;-38
2021/11/28 19:37:09;;;;;;;11.27;3.95;;;3.40;90.80;;;;;;5075075;28;20025;-38
2021/11/28 19:39:35;;;;;;;5.65;3.75;;;3.40;90.80;;;;;;5075189;28;20021;-38
2021/11/28 19:42:00;;;;;;;6.90;3.08;;;3.30;90.70;;;;;;5075260;28;20074;-37
2021/11/28 19:44:26;;;;;;;6.80;3.35;;;3.30;90.80;;;;;;5074959;28;20020;-38
2021/11/28 19:46:51;;;;;;;5.68;3.47;;;3.30;90.70;;;;;;5075047;28;20404;-38
2021/11/28 19:49:17;;;;;;;4.47;2.60;;;3.20;90.70;;;;;;5074915;28;20024;-38
2021/11/28 19:51:44;;;;;;;3.83;2.85;;;3.10;91.00;;;;;;5074795;28;20388;-39
2021/11/28 19:54:10;;;;;;;4.68;2.92;;;2.90;91.20;;;;;;5075200;28;20021;-39
2021/11/28 19:56:36;;;;;;;6.45;3.60;;;2.90;91.40;;;;;;5075097;28;20049;-38
2021/11/28 19:59:05;;;;;;;6.90;3.75;;;2.90;91.40;;;;;;5074748;28;20029;-38
2021/11/28 20:01:31;;;;;;;7.68;4.55;;;2.80;91.50;;;;;;5074315;28;20049;-38
2021/11/28 20:03:57;;;;;;;9.80;4.05;;;2.90;91.70;;;;;;5074689;28;20104;-38
2021/11/28 20:06:23;;;;;;;9.10;4.95;;;3.00;91.40;;;;;;5074878;28;20025;-38
2021/11/28 20:08:53;;;;;;;8.70;4.60;;;3.10;91.40;;;;;;5075008;28;20035;-38
2021/11/28 20:11:19;;;;;;;9.27;4.13;;;3.10;91.30;;;;;;5075258;28;20024;-38
2021/11/28 20:13:55;;;;;;;9.13;4.88;;;3.20;91.10;;;;;;5075201;28;20052;-38
2021/11/28 20:16:21;;;;;;;7.75;5.85;;;3.10;90.90;;;;;;5058787;28;20024;-37
2021/11/28 20:18:46;;;;;;;7.45;4.38;;;3.10;90.80;;;;;;5074334;28;20044;-38
2021/11/28 20:21:12;;;;;;;11.57;4.72;;;3.10;90.80;;;;;;5074423;28;20032;-38
2021/11/28 20:23:38;;;;;;;9.88;5.55;;;3.10;90.90;;;;;;5074200;28;20353;-39
2021/11/28 20:26:03;;;;;;;9.18;4.57;;;3.10;91.00;;;;;;5074254;28;20024;-39
2021/11/28 20:28:31;;;;;;;6.18;4.35;;;3.10;90.80;;;;;;5074119;28;20021;-39
2021/11/28 20:30:57;;;;;;;7.30;4.80;;;3.10;90.70;;;;;;5056571;28;20017;-39
2021/11/28 20:33:24;;;;;;;13.32;5.82;;;3.00;91.00;;;;;;5074297;28;20051;-39
2021/11/28 20:35:49;;;;;;;7.43;4.43;;;2.90;91.10;;;;;;5074350;28;20024;-38
2021/11/28 20:38:16;;;;;;;5.35;2.90;;;2.90;91.20;;;;;;5074138;28;20027;-38
2021/11/28 20:40:42;;;;;;;10.18;4.00;;;2.80;91.30;;;;;;5074256;28;20025;-39
2021/11/28 20:43:08;;;;;;;5.72;4.05;;;2.80;91.60;;;;;;5074090;28;20032;-38
2021/11/28 20:45:34;;;;;;;7.88;3.92;;;2.70;91.80;;;;;;5073943;28;20021;-38
2021/11/28 20:48:00;;;;;;;7.28;4.15;;;2.70;91.90;;;;;;5073621;28;20029;-39
2021/11/28 20:50:27;;;;;;;9.38;4.32;;;2.70;91.90;;;;;;5073602;28;20028;-39
2021/11/28 20:52:52;;;;;;;9.13;5.95;;;2.80;91.90;;;;;;5073642;28;20101;-38
2021/11/28 20:55:19;;;;;;;9.43;5.30;;;2.80;91.80;;;;;;5073820;28;20033;-38
2021/11/28 20:57:45;;;;;;;11.00;6.32;;;2.80;91.90;;;;;;5073764;28;20029;-38
2021/11/28 21:00:16;;;;;;;8.73;5.65;;;2.80;91.90;;;;;;5073645;28;20051;-39
2021/11/28 21:02:41;;;;;;;9.45;6.07;;;2.80;91.90;;;;;;5073386;28;20067;-38
2021/11/28 21:05:07;;;;;;;20.80;7.80;;;2.90;92.00;;;;;;5073206;28;20420;-37
2021/11/28 21:07:37;;;;;;;9.38;6.38;;;2.80;91.80;;;;;;5074184;28;20047;-39
2021/11/28 21:10:08;;;;;;;12.65;6.97;;;2.80;91.80;;;;;;5073483;28;20388;-38
2021/11/28 21:12:34;;;;;;;10.40;6.47;;;2.80;92.00;;;;;;5072874;28;20094;-38
2021/11/28 21:15:00;;;;;;;12.77;7.05;;;2.70;92.10;;;;;;5073144;28;20025;-38
2021/11/28 21:17:29;;;;;;;14.15;7.72;;;2.60;92.10;;;;;;5073480;28;20025;-38
2021/11/28 21:19:55;;;;;;;13.55;7.72;;;2.60;92.30;;;;;;5073944;28;20024;-38
2021/11/28 21:22:21;;;;;;;12.95;8.20;;;2.50;92.40;;;;;;5073033;28;20050;-38
2021/11/28 21:24:47;;;;;;;14.25;9.13;;;2.40;92.60;;;;;;5073202;28;20075;-38
2021/11/28 21:27:12;;;;;;;13.52;8.50;;;2.40;92.70;;;;;;5073266;28;20091;-39
2021/11/28 21:29:38;;;;;;;17.77;9.98;;;2.50;92.80;;;;;;5072602;28;20083;-38
2021/11/28 21:32:06;;;;;;;18.77;11.32;;;2.40;92.80;;;;;;5072852;28;20028;-38
2021/11/28 21:34:33;;;;;;;22.58;12.35;;;2.40;93.00;;;;;;5073021;28;20051;-38
2021/11/28 21:36:59;;;;;;;17.83;12.43;;;2.30;93.00;;;;;;5072792;28;20021;-38
2021/11/28 21:39:25;;;;;;;22.85;13.15;;;2.40;93.00;;;;;;5072882;28;20111;-38
2021/11/28 21:41:50;;;;;;;20.75;13.60;;;2.30;92.90;;;;;;5073125;28;20111;-38
2021/11/28 21:44:16;;;;;;;25.30;15.68;;;2.40;93.20;;;;;;5072689;28;20025;-38
2021/11/28 21:46:42;;;;;;;21.20;14.38;;;2.40;93.00;;;;;;5072932;28;20052;-38
2021/11/28 21:49:07;;;;;;;23.75;15.65;;;2.30;93.00;;;;;;5072907;28;20060;-38
2021/11/28 21:51:36;;;;;;;24.40;15.48;;;2.30;93.10;;;;;;5072944;28;20048;-38
2021/11/28 21:54:03;;;;;;;26.95;16.08;;;2.30;93.10;;;;;;5072818;28;20064;-39
2021/11/28 21:56:29;;;;;;;35.03;16.60;;;2.30;93.00;;;;;;5072650;28;20039;-39
2021/11/28 21:58:56;;;;;;;28.30;15.35;;;2.20;93.10;;;;;;5072962;28;20103;-38
2021/11/28 22:01:22;;;;;;;22.35;15.60;;;2.10;93.20;;;;;;5054464;28;20044;-39
2021/11/28 22:03:49;;;;;;;25.58;15.57;;;2.10;93.20;;;;;;5072739;28;20100;-38
2021/11/28 22:06:15;;;;;;;27.17;16.77;;;2.00;93.50;;;;;;5072409;28;20021;-38
2021/11/28 22:08:41;;;;;;;23.70;16.17;;;2.10;93.60;;;;;;5072415;28;20091;-38
2021/11/28 22:11:07;;;;;;;23.98;16.20;;;2.10;93.60;;;;;;5072679;28;20039;-39
2021/11/28 22:13:33;;;;;;;24.80;14.45;;;2.00;93.50;;;;;;5072337;28;20024;-39
2021/11/28 22:15:59;;;;;;;22.95;15.23;;;1.90;93.50;;;;;;5072398;28;20380;-39
2021/11/28 22:18:25;;;;;;;26.30;15.50;;;1.90;93.50;;;;;;5072489;28;20127;-38
2021/11/28 22:20:51;;;;;;;21.05;14.50;;;1.80;93.70;;;;;;5072334;28;20504;-38
2021/11/28 22:23:17;;;;;;;24.05;15.70;;;1.80;93.70;;;;;;5073443;28;20031;-39
2021/11/28 22:25:43;;;;;;;29.02;16.75;;;1.70;93.90;;;;;;5076527;28;20465;-44
2021/11/28 22:28:09;;;;;;;27.17;15.43;;;1.70;94.00;;;;;;5076157;28;20048;-39
2021/11/28 22:30:35;;;;;;;32.35;15.75;;;1.70;94.00;;;;;;5076183;28;20021;-39
2021/11/28 22:33:01;;;;;;;25.77;16.38;;;1.70;94.10;;;;;;5076167;28;20078;-39
2021/11/28 22:35:29;;;;;;;25.13;14.43;;;1.60;94.10;;;;;;5058144;28;20028;-39
2021/11/28 22:37:56;;;;;;;23.73;15.70;;;1.60;94.10;;;;;;5076053;28;20025;-39
2021/11/28 22:40:25;;;;;;;23.55;15.20;;;1.60;94.20;;;;;;5076485;28;20103;-38
2021/11/28 22:42:50;;;;;;;26.15;16.00;;;1.60;94.20;;;;;;5076198;28;20350;-38
2021/11/28 22:45:18;;;;;;;28.70;15.05;;;1.60;94.20;;;;;;5076132;28;20086;-38
2021/11/28 22:47:44;;;;;;;25.75;14.57;;;1.50;94.10;;;;;;5075806;28;20108;-39